Time;durP1;ratioP1;P1;durP2;ratioP2;P2;SDS_P1;SDS_P2;PMS_P1;PMS_P2;Temp;Humidity;BMP_temperature;BMP_pressure;BME280_temperature;BME280_humidity;BME280_pressure;Samples;Min_cycle;Max_cycle;Signal;HPM_P1;HPM_P2
2021/06/27 00:02:00;;;;;;;;;;;;;;;17.11;71.53;96510.38;5073982;28;20435;-76
2021/06/27 00:04:26;;;;;;;;;;;;;;;17.08;71.84;96508.25;5074371;28;20348;-75
2021/06/27 00:06:52;;;;;;;;;;;;;;;17.04;71.67;96508.75;5073790;28;19971;-76
2021/06/27 00:09:18;;;;;;;;;;;;;;;17.01;71.89;96513.78;5074039;28;20388;-75
2021/06/27 00:11:44;;;;;;;;;;;;;;;16.97;72.03;96513.50;5074036;28;19965;-75
2021/06/27 00:14:10;;;;;;;;;;;;;;;16.95;72.09;96512.16;5073615;28;19976;-76
2021/06/27 00:16:38;;;;;;;;;;;;;;;16.91;72.08;96516.38;5073739;28;19972;-75
2021/06/27 00:19:04;;;;;;;;;;;;;;;16.86;72.68;96511.03;5073806;28;19971;-75
2021/06/27 00:21:31;;;;;;;;;;;;;;;16.81;72.26;96504.66;5073561;28;19965;-75
2021/06/27 00:23:57;;;;;;;;;;;;;;;16.77;72.66;96502.75;5073618;28;19999;-76
2021/06/27 00:26:24;;;;;;;;;;;;;;;16.73;72.62;96510.41;5073637;28;19984;-75
2021/06/27 00:28:50;;;;;;;;;;;;;;;16.71;72.58;96509.06;5073866;28;19965;-75
2021/06/27 00:31:16;;;;;;;;;;;;;;;16.67;72.96;96506.13;5073590;28;19969;-75
2021/06/27 00:33:42;;;;;;;;;;;;;;;16.67;72.74;96503.47;5074202;28;19960;-75
2021/06/27 00:36:08;;;;;;;;;;;;;;;16.62;73.10;96501.59;5073296;28;19976;-75
2021/06/27 00:38:35;;;;;;;;;;;;;;;16.61;73.25;96494.72;5073405;28;19968;-76
2021/06/27 00:41:01;;;;;;;;;;;;;;;16.59;73.21;96491.53;5073376;28;19969;-76
2021/06/27 00:43:28;;;;;;;;;;;;;;;16.58;73.03;96499.72;5073829;28;19964;-75
2021/06/27 00:45:54;;;;;;;;;;;;;;;16.53;73.29;96503.13;5073461;28;19972;-76
2021/06/27 00:48:20;;;;;;;;;;;;;;;16.49;73.30;96503.91;5073890;28;20361;-75
2021/06/27 00:50:48;;;;;;;;;;;;;;;16.46;73.31;96502.53;5073373;28;19961;-75
2021/06/27 00:53:15;;;;;;;;;;;;;;;16.42;73.39;96493.50;5073355;28;19971;-76
2021/06/27 00:55:41;;;;;;;;;;;;;;;16.40;73.40;96500.94;5073269;28;19989;-75
2021/06/27 00:58:08;;;;;;;;;;;;;;;16.37;73.71;96502.22;5073487;28;19965;-75
2021/06/27 01:00:38;;;;;;;;;;;;;;;16.34;73.87;96507.22;5073935;28;19961;-75
2021/06/27 01:03:04;;;;;;;;;;;;;;;16.31;73.75;96507.72;5076037;28;19965;-75
2021/06/27 01:05:32;;;;;;;;;;;;;;;16.30;73.68;96512.22;5076091;28;19988;-75
2021/06/27 01:07:58;;;;;;;;;;;;;;;16.27;73.92;96512.72;5077474;28;20329;-76
2021/06/27 01:10:25;;;;;;;;;;;;;;;16.25;73.69;96514.81;5075984;28;19979;-76
2021/06/27 01:12:51;;;;;;;;;;;;;;;16.22;74.10;96517.97;5076393;28;19964;-76
2021/06/27 01:15:18;;;;;;;;;;;;;;;16.20;73.75;96520.06;5076977;28;20035;-75
2021/06/27 01:17:45;;;;;;;;;;;;;;;16.16;73.77;96519.78;5077377;28;19965;-77
2021/06/27 01:20:13;;;;;;;;;;;;;;;16.14;74.31;96516.59;5075935;28;19964;-75
2021/06/27 01:22:39;;;;;;;;;;;;;;;16.10;74.43;96512.84;5076943;28;19968;-76
2021/06/27 01:25:07;;;;;;;;;;;;;;;16.09;74.16;96513.09;5076726;28;19984;-76
2021/06/27 01:27:33;;;;;;;;;;;;;;;16.08;74.39;96511.50;5077214;28;19972;-75
2021/06/27 01:29:59;;;;;;;;;;;;;;;16.07;74.31;96508.06;5075728;28;20431;-76
2021/06/27 01:32:25;;;;;;;;;;;;;;;16.06;74.64;96511.75;5076762;28;19965;-75
2021/06/27 01:34:51;;;;;;;;;;;;;;;16.06;74.39;96516.25;5076753;28;19969;-75
2021/06/27 01:37:17;;;;;;;;;;;;;;;16.02;74.80;96519.41;5076820;28;19968;-75
2021/06/27 01:39:43;;;;;;;;;;;;;;;16.01;74.53;96522.28;5077041;28;20417;-75
2021/06/27 01:42:09;;;;;;;;;;;;;;;15.97;74.50;96521.97;5076952;28;20335;-76
2021/06/27 01:44:35;;;;;;;;;;;;;;;15.94;74.63;96506.63;5077041;28;19980;-75
2021/06/27 01:47:02;;;;;;;;;;;;;;;15.88;74.86;96510.28;5076164;28;19956;-76
2021/06/27 01:49:28;;;;;;;;;;;;;;;15.87;75.34;96518.44;5076497;28;19965;-75
2021/06/27 01:51:54;;;;;;;;;;;;;;;15.83;74.88;96513.66;5076366;28;19969;-77
2021/06/27 01:54:21;;;;;;;;;;;;;;;15.82;75.00;96519.19;5076779;28;19969;-76
2021/06/27 01:56:47;;;;;;;;;;;;;;;15.82;74.80;96516.56;5075448;28;20007;-77
2021/06/27 01:59:13;;;;;;;;;;;;;;;15.80;75.07;96518.66;5075119;28;19972;-76
2021/06/27 02:01:40;;;;;;;;;;;;;;;15.78;75.45;96523.38;5075650;28;19975;-76
2021/06/27 02:04:07;;;;;;;;;;;;;;;15.75;75.14;96519.41;5075081;28;19967;-76
2021/06/27 02:06:36;;;;;;;2.80;2.70;;;;;;;15.96;73.05;96515.09;5072208;28;20427;-77
2021/06/27 02:09:07;;;;;;;2.90;2.70;;;;;;;15.92;73.46;96523.81;5075167;28;20040;-77
2021/06/27 02:11:34;;;;;;;2.88;2.67;;;;;;;15.86;73.25;96520.28;5074654;28;20032;-76
2021/06/27 02:14:01;;;;;;;2.97;2.78;;;;;;;15.81;73.74;96515.75;5074113;28;20036;-76
2021/06/27 02:16:27;;;;;;;3.33;3.10;;;;;;;15.77;74.02;96506.72;5073360;28;20051;-75
2021/06/27 02:18:54;;;;;;;3.08;2.88;;;;;;;15.73;74.42;96499.56;5074507;28;20032;-75
2021/06/27 02:21:26;;;;;;;2.67;2.58;;;;;;;15.71;74.88;96491.03;5074252;28;20037;-75
2021/06/27 02:23:53;;;;;;;2.97;2.78;;;;;;;15.68;75.04;96491.53;5074518;28;20033;-76
2021/06/27 02:26:21;;;;;;;3.13;2.92;;;;;;;15.66;75.33;96485.69;5074815;28;20044;-76
2021/06/27 02:28:47;;;;;;;2.97;2.70;;;;;;;15.63;75.56;96489.63;5074124;28;20405;-77
2021/06/27 02:31:14;;;;;;;3.20;3.08;;;;;;;15.61;75.82;96484.59;5073415;28;20035;-76
2021/06/27 02:33:41;;;;;;;3.42;3.20;;;;;;;15.59;76.05;96486.69;5074144;28;20049;-78
2021/06/27 02:36:08;;;;;;;3.80;3.60;;;;;;;15.59;76.33;96476.09;5074460;28;20503;-76
2021/06/27 02:38:35;;;;;;;4.18;3.97;;;;;;;15.59;76.54;96483.25;5073402;28;20150;-76
2021/06/27 02:41:03;;;;;;;4.45;4.15;;;;;;;15.57;76.72;96478.19;5074017;28;20036;-76
2021/06/27 02:43:29;;;;;;;5.13;4.82;;;;;;;15.56;77.19;96481.06;5074311;28;20039;-75
2021/06/27 02:45:56;;;;;;;6.03;5.53;;;;;;;15.56;77.53;96484.53;5073824;28;20032;-75
2021/06/27 02:48:22;;;;;;;5.78;5.38;;;;;;;15.57;77.91;96477.41;5074087;28;20041;-76
2021/06/27 02:50:48;;;;;;;5.63;5.13;;;;;;;15.61;78.21;96465.28;5073825;28;20051;-75
2021/06/27 02:53:15;;;;;;;6.03;5.53;;;;;;;15.63;78.49;96460.56;5073719;28;20040;-76
2021/06/27 02:55:41;;;;;;;5.95;5.55;;;;;;;15.64;78.73;96454.19;5035520;28;1111340;-77
2021/06/27 02:58:08;;;;;;;5.65;5.30;;;;;;;15.66;79.15;96459.25;5074857;28;20052;-77
2021/06/27 03:00:34;;;;;;;5.35;5.05;;;;;;;15.64;79.17;96456.84;5074575;28;20051;-76
2021/06/27 03:03:01;;;;;;;4.60;4.40;;;;;;;15.65;79.44;96452.38;5072913;28;20044;-76
2021/06/27 03:05:27;;;;;;;4.93;4.60;;;;;;;15.65;79.68;96450.53;5074698;28;20039;-77
2021/06/27 03:07:54;;;;;;;5.47;5.18;;;;;;;15.66;80.01;96446.03;5074935;28;20036;-77
2021/06/27 03:10:20;;;;;;;5.07;4.78;;;;;;;15.66;80.10;96449.47;5074161;28;20055;-76
2021/06/27 03:12:50;;;;;;;5.45;5.05;;;;;;;15.67;80.59;96447.63;5074581;28;20052;-79
2021/06/27 03:15:20;;;;;;;4.13;3.92;;;;;;;15.66;80.48;96438.88;5074092;28;20055;-77
2021/06/27 03:17:47;;;;;;;5.20;4.80;;;;;;;15.65;80.57;96426.72;5074135;28;20048;-77
2021/06/27 03:20:17;;;;;;;4.72;4.43;;;;;;;15.65;80.55;96425.94;5074395;28;20048;-76
2021/06/27 03:22:45;;;;;;;4.85;4.55;;;;;;;15.65;80.78;96428.59;5074809;28;20025;-77
2021/06/27 03:25:12;;;;;;;4.72;4.43;;;;;;;15.64;81.05;96427.75;5073284;28;20465;-77
2021/06/27 03:27:38;;;;;;;5.05;4.75;;;;;;;15.65;81.02;96412.72;5073146;28;20503;-76
2021/06/27 03:30:06;;;;;;;5.13;4.82;;;;;;;15.67;81.20;96415.91;5072866;28;20886;-78
2021/06/27 03:32:33;;;;;;;5.65;5.25;;;;;;;15.67;81.29;96405.34;5074417;28;20044;-77
2021/06/27 03:34:59;;;;;;;4.50;4.30;;;;;;;15.66;81.31;96396.59;5072782;28;20052;-77
2021/06/27 03:37:26;;;;;;;4.68;4.43;;;;;;;15.66;81.55;96399.22;5073252;28;20048;-76
2021/06/27 03:39:52;;;;;;;4.50;4.20;;;;;;;15.66;81.54;96401.88;5074058;28;20068;-75
2021/06/27 03:42:18;;;;;;;5.15;4.85;;;;;;;15.67;82.09;96413.28;5073855;28;20468;-76
2021/06/27 03:44:45;;;;;;;5.50;5.10;;;;;;;15.66;82.05;96423.03;5073906;28;20469;-76
2021/06/27 03:47:11;;;;;;;5.20;4.90;;;;;;;15.63;82.41;96428.81;5074635;28;20036;-75
2021/06/27 03:49:37;;;;;;;5.15;4.82;;;;;;;15.65;82.44;96442.59;5074213;28;20047;-76
2021/06/27 03:52:04;;;;;;;5.00;4.70;;;;;;;15.63;82.64;96450.75;5073539;28;20047;-75
2021/06/27 03:54:32;;;;;;;4.57;4.32;;;;;;;15.62;82.53;96451.00;5073956;28;20044;-75
2021/06/27 03:56:58;;;;;;;5.20;4.70;;;;;;;15.61;82.74;96452.88;5071746;28;20044;-75
2021/06/27 03:59:24;;;;;;;4.82;4.40;;;;;;;15.50;82.38;96459.09;5072737;28;20040;-75
2021/06/27 04:01:50;;;;;;;4.15;3.88;;;;;;;15.45;82.64;96466.16;5055824;28;20055;-75
2021/06/27 04:04:17;;;;;;;4.38;4.07;;;;;;;15.46;82.86;96473.06;5073583;28;20044;-75
2021/06/27 04:06:43;;;;;;;4.15;3.85;;;;;;;15.48;82.94;96461.19;5073781;28;20044;-75
2021/06/27 04:09:09;;;;;;;4.53;4.22;;;;;;;15.50;82.90;96458.31;5073423;28;20043;-75
2021/06/27 04:11:35;;;;;;;4.10;3.85;;;;;;;15.53;82.94;96463.09;5073568;28;20043;-75
2021/06/27 04:14:01;;;;;;;4.30;4.10;;;;;;;15.56;83.08;96467.84;5072059;28;20033;-75
2021/06/27 04:16:29;;;;;;;4.50;4.20;;;;;;;15.61;82.94;96468.72;5074175;28;20428;-75
2021/06/27 04:18:56;;;;;;;4.40;4.00;;;;;;;15.62;82.76;96472.97;5071998;28;20029;-75
2021/06/27 04:21:22;;;;;;;4.68;4.30;;;;;;;15.66;82.79;96462.69;5073670;28;20040;-75
2021/06/27 04:23:48;;;;;;;4.25;3.95;;;;;;;15.68;82.89;96465.88;5072064;28;20033;-75
2021/06/27 04:26:14;;;;;;;4.70;4.25;;;;;;;15.69;82.68;96464.84;5071967;28;20047;-75
2021/06/27 04:28:41;;;;;;;4.35;4.05;;;;;;;15.72;82.82;96474.94;5038795;28;20142;-75
2021/06/27 04:31:07;;;;;;;3.97;3.67;;;;;;;15.75;82.86;96478.94;5073449;28;20037;-75
2021/06/27 04:33:33;;;;;;;4.00;3.72;;;;;;;15.78;82.85;96470.50;5072890;28;20036;-75
2021/06/27 04:35:59;;;;;;;4.03;3.83;;;;;;;15.81;82.76;96476.09;5073248;28;20044;-75
2021/06/27 04:38:26;;;;;;;4.03;3.83;;;;;;;15.86;82.79;96474.56;5072255;28;20028;-75
2021/06/27 04:40:53;;;;;;;4.38;4.18;;;;;;;15.88;82.78;96460.03;5072813;28;20040;-76
2021/06/27 04:43:19;;;;;;;4.40;4.10;;;;;;;15.90;82.75;96468.50;5072888;28;20040;-75
2021/06/27 04:45:46;;;;;;;4.10;3.80;;;;;;;15.93;82.76;96461.91;5072844;28;20036;-75
2021/06/27 04:48:12;;;;;;;4.10;3.90;;;;;;;15.97;82.89;96460.34;5072970;28;20039;-75
2021/06/27 04:50:39;;;;;;;3.95;3.75;;;;;;;16.00;82.89;96463.31;5073283;28;20036;-75
2021/06/27 04:53:09;;;;;;;4.28;4.00;;;;;;;16.04;83.12;96455.66;5073009;28;20040;-76
2021/06/27 04:55:35;;;;;;;3.95;3.75;;;;;;;16.09;82.96;96444.34;5072817;28;20048;-75
2021/06/27 04:58:02;;;;;;;4.35;4.05;;;;;;;16.11;83.15;96440.38;5072398;28;20052;-75
2021/06/27 05:00:29;;;;;;;3.90;3.60;;;;;;;16.18;83.03;96437.50;5071676;28;20039;-76
2021/06/27 05:02:56;;;;;;;3.90;3.70;;;;;;;16.24;83.22;96441.78;5073256;28;20468;-75
2021/06/27 05:05:22;;;;;;;4.28;3.70;;;;;;;16.31;83.17;96436.28;5071213;28;20040;-75
2021/06/27 05:07:48;;;;;;;4.25;3.95;;;;;;;16.38;83.19;96436.88;5072833;28;20153;-75
2021/06/27 05:10:14;;;;;;;4.20;4.00;;;;;;;16.44;83.13;96428.69;5073282;28;20424;-76
2021/06/27 05:12:40;;;;;;;4.82;4.53;;;;;;;16.52;83.17;96434.56;5072735;28;20366;-75
2021/06/27 05:15:07;;;;;;;4.55;4.25;;;;;;;16.59;83.13;96435.94;5072420;28;20049;-75
2021/06/27 05:17:34;;;;;;;4.10;3.90;;;;;;;16.69;83.46;96435.16;5072930;28;20045;-75
2021/06/27 05:20:00;;;;;;;4.20;3.90;;;;;;;16.79;83.40;96429.94;5072563;28;20052;-75
2021/06/27 05:22:27;;;;;;;4.40;4.10;;;;;;;16.92;83.41;96435.84;5072720;28;20033;-75
2021/06/27 05:24:53;;;;;;;3.85;3.65;;;;;;;17.01;83.22;96440.41;5072701;28;20044;-75
2021/06/27 05:27:19;;;;;;;3.50;3.20;;;;;;;17.10;83.15;96438.06;5072923;28;20388;-75
2021/06/27 05:29:46;;;;;;;3.40;3.20;;;;;;;17.24;83.20;96433.06;5072130;28;20044;-75
2021/06/27 05:32:12;;;;;;;3.33;3.13;;;;;;;17.43;83.12;96431.53;5072247;28;20041;-75
2021/06/27 05:34:38;;;;;;;3.80;3.60;;;;;;;17.60;82.40;96435.81;5072564;28;20032;-75
2021/06/27 05:37:04;;;;;;;3.50;3.30;;;;;;;17.67;81.96;96432.91;5072664;28;20040;-75
2021/06/27 05:39:31;;;;;;;3.40;3.20;;;;;;;17.68;81.64;96429.16;5072706;28;20041;-75
2021/06/27 05:41:57;;;;;;;3.45;3.28;;;;;;;17.87;81.76;96434.78;5073241;28;20048;-75
2021/06/27 05:44:23;;;;;;;4.10;3.80;;;;;;;18.24;81.32;96429.22;5072463;28;20469;-75
2021/06/27 05:46:49;;;;;;;3.72;3.42;;;;;;;18.60;80.80;96426.50;5071864;28;20063;-75
2021/06/27 05:49:15;;;;;;;3.50;3.30;;;;;;;19.05;79.90;96424.81;5074968;28;20059;-76
2021/06/27 05:51:42;;;;;;;3.40;3.13;;;;;;;19.44;78.84;96418.75;5074944;28;20032;-76
2021/06/27 05:54:09;;;;;;;3.50;3.30;;;;;;;19.77;77.00;96419.09;5075838;28;20043;-75
2021/06/27 05:56:36;;;;;;;3.25;2.95;;;;;;;19.99;75.70;96423.97;5076369;28;20493;-75
2021/06/27 05:59:04;;;;;;;3.05;2.85;;;;;;;20.23;74.71;96426.72;5076070;28;20048;-75
2021/06/27 06:01:30;;;;;;;2.72;2.53;;;;;;;20.55;73.67;96422.69;5076347;28;20385;-75
2021/06/27 06:03:57;;;;;;;3.10;2.90;;;;;;;20.88;72.54;96423.69;5075713;28;20037;-75
2021/06/27 06:06:23;;;;;;;3.00;2.90;;;;;;;21.13;71.28;96429.81;5075798;28;20037;-75
2021/06/27 06:08:50;;;;;;;3.13;2.92;;;;;;;21.24;70.02;96431.25;5076216;28;20040;-75
2021/06/27 06:11:17;;;;;;;3.20;3.00;;;;;;;21.39;69.34;96432.94;5075844;28;20052;-75
2021/06/27 06:13:43;;;;;;;3.10;2.92;;;;;;;21.54;68.44;96427.41;5075560;28;20382;-75
2021/06/27 06:16:10;;;;;;;3.17;2.97;;;;;;;21.72;67.72;96430.38;5074675;28;20056;-75
2021/06/27 06:18:41;;;;;;;3.58;3.38;;;;;;;21.79;66.78;96430.78;5074707;28;20041;-75
2021/06/27 06:21:07;;;;;;;3.15;3.00;;;;;;;21.86;66.13;96434.69;5075457;28;20040;-76
2021/06/27 06:23:33;;;;;;;3.20;3.00;;;;;;;21.86;65.40;96432.03;5076076;28;20044;-75
2021/06/27 06:26:00;;;;;;;2.95;2.85;;;;;;;21.84;65.27;96418.16;5075208;28;20048;-75
2021/06/27 06:28:26;;;;;;;3.15;2.80;;;;;;;22.04;65.32;96418.91;5075687;28;20039;-75
2021/06/27 06:30:52;;;;;;;2.58;2.38;;;;;;;22.34;64.71;96409.63;5075350;28;20029;-75
2021/06/27 06:33:18;;;;;;;2.03;1.92;;;;;;;22.66;63.85;96402.66;5075348;28;20041;-75
2021/06/27 06:35:44;;;;;;;2.45;1.88;;;;;;;22.86;62.74;96401.44;5076018;28;20469;-75
2021/06/27 06:38:11;;;;;;;2.05;1.90;;;;;;;23.03;61.81;96392.84;5075400;28;20115;-75
2021/06/27 06:40:39;;;;;;;1.95;1.90;;;;;;;23.25;60.88;96395.59;5075058;28;20041;-75
2021/06/27 06:43:06;;;;;;;1.80;1.80;;;;;;;23.47;59.96;96399.38;5075569;28;20040;-76
2021/06/27 06:45:33;;;;;;;1.77;1.67;;;;;;;23.58;59.32;96392.72;5075088;28;20036;-75
2021/06/27 06:48:00;;;;;;;1.77;1.67;;;;;;;23.70;58.43;96390.28;5073769;28;20060;-75
2021/06/27 06:50:26;;;;;;;1.90;1.80;;;;;;;23.77;57.93;96389.91;5075089;28;20028;-75
2021/06/27 06:52:53;;;;;;;1.75;1.65;;;;;;;23.74;56.84;96384.34;5075009;28;20043;-75
2021/06/27 06:55:21;;;;;;;2.13;2.03;;;;;;;23.54;56.36;96386.41;5074938;28;20085;-75
2021/06/27 06:57:48;;;;;;;2.45;1.67;;;;;;;23.46;56.42;96384.44;5075071;28;20480;-75
2021/06/27 07:00:15;;;;;;;1.77;1.67;;;;;;;23.33;56.16;96386.06;5073438;28;20047;-75
2021/06/27 07:02:42;;;;;;;2.05;1.95;;;;;;;23.49;56.32;96384.59;5073422;28;20028;-75
2021/06/27 07:05:08;;;;;;;2.00;1.90;;;;;;;23.59;55.82;96372.88;5073297;28;20510;-75
2021/06/27 07:07:35;;;;;;;23.75;21.25;;;;;;;23.76;55.68;96366.91;5074796;28;20054;-75
2021/06/27 07:10:04;;;;;;;3.45;3.15;;;;;;;23.90;55.18;96372.19;5074729;28;20396;-75
2021/06/27 07:12:32;;;;;;;5.70;4.85;;;;;;;24.04;55.21;96364.88;5074751;28;20033;-75
2021/06/27 07:14:58;;;;;;;3.88;3.58;;;;;;;24.17;54.73;96362.41;5074077;28;20051;-75
2021/06/27 07:17:25;;;;;;;3.67;3.40;;;;;;;24.07;54.77;96356.22;5074542;28;20409;-75
2021/06/27 07:19:51;;;;;;;2.60;2.40;;;;;;;24.08;54.85;96363.16;5074355;28;20401;-75
2021/06/27 07:22:18;;;;;;;3.05;2.85;;;;;;;24.20;54.61;96354.56;5073377;28;20045;-74
2021/06/27 07:24:44;;;;;;;1.98;1.88;;;;;;;24.20;54.30;96357.22;5073252;28;20048;-75
2021/06/27 07:27:10;;;;;;;1.90;1.80;;;;;;;24.18;54.19;96353.28;5073618;28;20044;-75
2021/06/27 07:29:36;;;;;;;2.45;2.35;;;;;;;24.20;54.07;96349.19;5070200;28;20037;-75
2021/06/27 07:32:03;;;;;;;2.08;1.50;;;;;;;24.10;53.83;96344.09;5073895;28;20055;-75
2021/06/27 07:34:29;;;;;;;1.70;1.60;;;;;;;24.21;54.05;96352.66;5074148;28;20036;-75
2021/06/27 07:36:55;;;;;;;1.80;1.70;;;;;;;24.44;54.01;96346.16;5074387;28;20496;-74
2021/06/27 07:39:22;;;;;;;2.15;1.75;;;;;;;24.65;53.52;96342.94;5073854;28;20047;-75
2021/06/27 07:41:48;;;;;;;2.00;1.90;;;;;;;24.68;53.36;96334.28;5073913;28;20400;-75
2021/06/27 07:44:14;;;;;;;1.75;1.58;;;;;;;24.68;53.29;96332.38;5073716;28;20049;-74
2021/06/27 07:46:41;;;;;;;1.50;1.50;;;;;;;24.77;52.78;96332.41;5073857;28;20469;-74
2021/06/27 07:49:07;;;;;;;1.65;1.55;;;;;;;24.98;52.80;96329.91;5074258;28;20036;-74
2021/06/27 07:51:33;;;;;;;1.60;1.60;;;;;;;25.09;52.12;96323.16;5073823;28;20036;-73
2021/06/27 07:53:59;;;;;;;1.52;1.50;;;;;;;25.00;52.11;96327.69;5073835;28;20028;-74
2021/06/27 07:56:26;;;;;;;1.58;1.48;;;;;;;25.17;52.37;96323.47;5073993;28;20064;-75
2021/06/27 07:58:52;;;;;;;1.75;1.65;;;;;;;25.26;51.69;96322.41;5073758;28;20044;-74
2021/06/27 08:01:18;;;;;;;1.50;1.40;;;;;;;25.36;51.55;96323.19;5073708;28;20040;-74
2021/06/27 08:03:44;;;;;;;1.73;1.67;;;;;;;25.45;51.48;96329.31;5073375;28;20044;-73
2021/06/27 08:06:10;;;;;;;1.40;1.40;;;;;;;25.60;51.29;96331.53;5073803;28;20469;-73
2021/06/27 08:08:37;;;;;;;1.58;1.48;;;;;;;25.86;51.00;96322.66;5073120;28;20043;-74
2021/06/27 08:11:03;;;;;;;1.50;1.40;;;;;;;26.08;50.96;96321.66;5073227;28;20047;-74
2021/06/27 08:13:29;;;;;;;1.30;1.30;;;;;;;26.26;50.21;96314.34;5073394;28;20057;-73
2021/06/27 08:15:58;;;;;;;1.38;1.38;;;;;;;26.15;49.66;96307.75;5073433;28;20041;-73
2021/06/27 08:18:24;;;;;;;1.60;1.50;;;;;;;25.89;49.46;96314.78;5072876;28;20491;-74
2021/06/27 08:20:50;;;;;;;1.70;1.60;;;;;;;25.85;49.74;96304.94;5073431;28;20032;-73
2021/06/27 08:23:17;;;;;;;1.38;1.38;;;;;;;25.85;49.63;96311.13;5073629;28;20048;-73
2021/06/27 08:25:43;;;;;;;1.73;1.63;;;;;;;25.97;49.57;96307.00;5072854;28;20048;-74
2021/06/27 08:28:09;;;;;;;1.60;1.50;;;;;;;26.06;49.21;96308.56;5071810;28;20400;-73
2021/06/27 08:30:36;;;;;;;1.50;1.50;;;;;;;26.28;49.29;96309.44;5073086;28;20040;-73
2021/06/27 08:33:03;;;;;;;1.23;1.23;;;;;;;26.49;48.93;96304.91;5072769;28;20473;-74
2021/06/27 08:35:29;;;;;;;1.77;1.27;;;;;;;26.51;48.28;96299.19;5072818;28;20473;-73
2021/06/27 08:37:57;;;;;;;1.20;1.20;;;;;;;26.47;48.03;96284.81;5072707;28;20047;-74
2021/06/27 08:40:23;;;;;;;1.45;1.35;;;;;;;26.34;47.51;96294.69;5072213;28;20051;-74
2021/06/27 08:42:51;;;;;;;1.10;1.10;;;;;;;26.26;47.79;96279.38;5073137;28;20039;-73
2021/06/27 08:45:19;;;;;;;1.23;1.15;;;;;;;26.17;47.45;96279.44;5071657;28;20025;-73
2021/06/27 08:47:46;;;;;;;1.63;1.52;;;;;;;26.33;47.57;96274.28;5073207;28;20055;-74
2021/06/27 08:50:15;;;;;;;1.50;1.40;;;;;;;26.41;47.08;96281.53;5073119;28;20047;-73
2021/06/27 08:52:42;;;;;;;2.58;1.30;;;;;;;26.48;46.84;96284.50;5073022;28;20032;-74
2021/06/27 08:55:10;;;;;;;1.25;1.25;;;;;;;26.48;46.64;96281.81;5072994;28;20493;-73
2021/06/27 08:57:38;;;;;;;0.90;0.90;;;;;;;26.30;46.47;96270.34;5072960;28;20052;-74
2021/06/27 09:00:07;;;;;;;1.40;1.30;;;;;;;26.35;46.46;96265.91;5087951;28;20048;-74
2021/06/27 09:02:33;;;;;;;1.10;1.00;;;;;;;26.46;46.43;96261.75;5073135;28;20048;-74
2021/06/27 09:05:00;;;;;;;1.20;1.10;;;;;;;26.64;46.36;96270.53;5073075;28;20043;-74
2021/06/27 09:07:28;;;;;;;1.13;1.08;;;;;;;26.66;46.05;96270.97;5072187;28;20033;-74
2021/06/27 09:10:03;;;;;;;1.23;1.23;;;;;;;26.58;44.16;96253.00;5073055;28;20032;-74
2021/06/27 09:12:50;;;;;;;1.00;1.00;;;;;;;26.46;45.01;96257.16;5072959;28;20048;-74
2021/06/27 09:15:32;;;;;;;1.40;0.90;;;;;;;26.58;45.06;96272.59;5071268;28;20040;-75
2021/06/27 09:18:00;;;;;;;0.90;0.90;;;;;;;26.77;45.07;96287.53;5069871;28;20040;-74
2021/06/27 09:20:26;;;;;;;0.98;0.90;;;;;;;26.86;44.29;96286.38;5072857;28;20029;-74
2021/06/27 09:22:54;;;;;;;1.02;1.02;;;;;;;26.87;43.98;96301.38;5072666;28;20044;-74
2021/06/27 09:25:25;;;;;;;0.90;0.90;;;;;;;26.96;43.31;96304.00;5076584;28;20041;-74
2021/06/27 09:28:06;;;;;;;0.90;0.90;;;;;;;26.97;41.91;96297.53;5076775;28;20044;-74
2021/06/27 09:30:36;;;;;;;0.80;0.80;;;;;;;27.10;42.54;96295.69;5075975;28;20048;-75
2021/06/27 09:33:05;;;;;;;0.70;0.70;;;;;;;27.16;42.01;96305.16;5076586;28;20033;-74
2021/06/27 09:35:51;;;;;;;0.70;0.70;;;;;;;27.17;40.29;96295.94;5076498;28;20055;-73
2021/06/27 09:38:23;;;;;;;1.13;0.70;;;;;;;27.13;41.61;96292.31;5076387;28;20404;-74
2021/06/27 09:40:52;;;;;;;0.75;0.70;;;;;;;27.25;41.50;96291.66;5076228;28;20039;-74
2021/06/27 09:43:20;;;;;;;1.00;1.00;;;;;;;27.41;41.42;96299.91;5075922;28;20048;-73
2021/06/27 09:45:54;;;;;;;0.52;0.52;;;;;;;27.58;40.82;96297.06;5075404;28;20465;-74
2021/06/27 09:48:20;;;;;;;0.80;0.80;;;;;;;27.51;40.37;96297.59;5076168;28;20457;-73
2021/06/27 09:50:46;;;;;;;0.80;0.80;;;;;;;27.59;39.89;96298.63;5076307;28;20381;-73
2021/06/27 09:53:35;;;;;;;0.70;0.70;;;;;;;27.66;40.19;96301.56;5075817;28;20033;-75
2021/06/27 09:56:03;;;;;;;0.80;0.70;;;;;;;27.64;39.55;96303.03;5074552;28;20127;-74
2021/06/27 09:58:29;;;;;;;0.77;0.77;;;;;;;27.63;39.90;96298.75;5076439;28;20048;-73
2021/06/27 10:00:57;;;;;;;0.90;0.90;;;;;;;27.63;39.52;96293.34;5075922;28;20037;-73
2021/06/27 10:03:27;;;;;;;1.10;1.00;;;;;;;27.56;38.96;96293.91;5076080;28;20040;-73
2021/06/27 10:06:06;;;;;;;0.80;0.80;;;;;;;27.64;39.13;96286.88;5071832;28;20040;-75
2021/06/27 10:08:33;;;;;;;0.80;0.80;;;;;;;27.82;38.83;96285.53;5076305;28;20044;-73
2021/06/27 10:11:13;;;;;;;0.73;0.73;;;;;;;28.02;38.28;96275.06;5075717;28;20048;-73
2021/06/27 10:13:51;;;;;;;1.05;0.73;;;;;;;28.28;37.58;96272.06;5075974;28;20037;-73
2021/06/27 10:16:27;;;;;;;0.80;0.80;;;;;;;28.47;38.32;96291.16;5075679;28;20037;-74
2021/06/27 10:18:53;;;;;;;0.77;0.77;;;;;;;28.71;38.27;96286.91;5075986;28;20029;-73
2021/06/27 10:21:20;;;;;;;0.80;0.80;;;;;;;28.94;38.15;96282.59;5076147;28;20050;-73
2021/06/27 10:23:47;;;;;;;0.80;0.80;;;;;;;29.04;37.90;96275.13;5073170;28;20063;-73
2021/06/27 10:26:15;;;;;;;0.90;0.80;;;;;;;28.80;37.75;96290.25;5075793;28;20044;-73
2021/06/27 10:28:43;;;;;;;0.70;0.65;;;;;;;28.61;37.78;96290.84;5075458;28;20033;-73
2021/06/27 10:31:11;;;;;;;0.80;0.80;;;;;;;28.65;38.15;96290.97;5075805;28;20020;-73
2021/06/27 10:33:39;;;;;;;0.60;0.60;;;;;;;28.75;38.03;96295.91;5075580;28;20032;-73
2021/06/27 10:36:08;;;;;;;0.68;0.68;;;;;;;28.84;37.96;96296.56;5077317;28;20048;-73
2021/06/27 10:38:38;;;;;;;0.57;0.57;;;;;;;28.87;37.65;96300.47;5071231;28;20043;-73
2021/06/27 10:41:04;;;;;;;0.85;0.70;;;;;;;28.93;37.45;96299.13;5071613;28;20032;-73
2021/06/27 10:43:55;;;;;;;0.70;0.70;;;;;;;29.01;35.20;96281.22;5074004;28;20039;-73
2021/06/27 10:46:45;;;;;;;0.70;0.70;;;;;;;28.95;35.98;96305.75;5075471;28;20032;-74
2021/06/27 10:49:35;;;;;;;0.60;0.60;;;;;;;29.05;37.22;96311.81;5075336;28;20043;-73
2021/06/27 10:52:09;;;;;;;0.95;0.95;;;;;;;29.28;36.63;96307.50;5075239;28;20366;-73
2021/06/27 10:54:40;;;;;;;;;;;;;;;29.49;35.44;96293.03;5070926;28;20071;-73
2021/06/27 10:57:10;;;;;;;0.55;0.55;;;;;;;29.64;35.92;96302.31;5074688;28;19924;-74
2021/06/27 10:59:51;;;;;;;0.60;0.60;;;;;;;29.61;35.01;96297.56;5075095;28;20385;-74
2021/06/27 11:02:21;;;;;;;0.90;0.80;;;;;;;29.64;35.48;96300.38;5074589;28;20044;-73
2021/06/27 11:04:49;;;;;;;1.42;1.42;;;;;;;29.83;35.05;96293.56;5074259;28;20583;-74
2021/06/27 11:07:37;;;;;;;1.10;1.10;;;;;;;29.87;33.44;96286.34;5074730;28;20039;-74
2021/06/27 11:10:19;;;;;;;0.90;0.90;;;;;;;29.81;32.85;96282.31;5074259;28;20052;-73
2021/06/27 11:12:55;;;;;;;0.80;0.80;;;;;;;29.84;33.81;96293.22;5074036;28;20088;-73
2021/06/27 11:15:51;;;;;;;0.43;0.43;;;;;;;29.93;32.58;96282.25;5074342;28;20024;-73
2021/06/27 11:18:33;;;;;;;0.63;0.63;;;;;;;29.74;31.63;96296.44;5065329;28;20048;-73
2021/06/27 11:20:59;;;;;;;0.60;0.60;;;;;;;29.58;32.74;96303.69;5074411;28;20468;-73
2021/06/27 11:23:47;;;;;;;0.75;0.50;;;;;;;29.25;31.46;96302.00;5074328;28;20465;-74
2021/06/27 11:26:52;;;;;;;0.75;0.50;;;;;;;29.14;32.33;96299.75;5074246;28;20044;-73
2021/06/27 11:29:21;;;;;;;1.38;0.40;;;;;;;29.23;32.06;96296.16;5031906;28;20033;-73
2021/06/27 11:31:48;;;;;;;0.40;0.40;;;;;;;29.37;32.29;96291.16;5067609;28;20499;-74
2021/06/27 11:34:20;;;;;;;0.73;0.50;;;;;;;29.50;32.33;96291.88;5074103;28;20028;-73
2021/06/27 11:36:51;;;;;;;0.40;0.40;;;;;;;29.47;32.66;96290.66;5074025;28;20028;-73
2021/06/27 11:39:43;;;;;;;0.65;0.65;;;;;;;29.65;33.47;96293.06;5073963;28;20040;-73
2021/06/27 11:42:27;;;;;;;2.42;0.40;;;;;;;29.78;31.53;96275.69;5073833;28;20036;-73
2021/06/27 11:45:09;;;;;;;0.50;0.50;;;;;;;29.93;31.50;96268.72;5073939;28;20037;-74
2021/06/27 11:47:38;;;;;;;0.40;0.40;;;;;;;30.14;32.32;96276.59;5073326;28;20150;-73
2021/06/27 11:50:13;;;;;;;0.60;0.57;;;;;;;30.26;32.63;96273.78;5073519;28;20048;-73
2021/06/27 11:52:39;;;;;;;0.50;0.50;;;;;;;30.43;32.56;96278.06;5072998;28;20029;-73